Time;durP1;ratioP1;P1;durP2;ratioP2;P2;SDS_P1;SDS_P2;PMS_P1;PMS_P2;Temp;Humidity;BMP_temperature;BMP_pressure;BME280_temperature;BME280_humidity;BME280_pressure;Samples;Min_cycle;Max_cycle;Signal;HPM_P1;HPM_P2
2022/02/14 00:02:07;;;;;;;6.42;5.67;;;;;;;10.47;51.45;100763.23;1776292;78;21033;-71
2022/02/14 00:04:34;;;;;;;8.40;5.97;;;;;;;10.49;51.49;100769.23;1789469;80;21061;-71
2022/02/14 00:07:00;;;;;;;6.53;5.85;;;;;;;10.50;51.49;100754.95;1780355;80;21518;-74
2022/02/14 00:09:28;;;;;;;7.30;5.83;;;;;;;10.51;51.51;100757.97;1799569;78;21005;-71
2022/02/14 00:11:55;;;;;;;6.70;5.47;;;;;;;10.51;51.51;100750.50;1739237;81;21521;-71
2022/02/14 00:14:23;;;;;;;6.78;5.55;;;;;;;10.52;51.52;100752.16;1764225;81;21027;-72
2022/02/14 00:16:50;;;;;;;7.40;6.03;;;;;;;10.53;51.51;100735.25;1745464;79;21093;-71
2022/02/14 00:19:16;;;;;;;6.33;5.60;;;;;;;10.52;51.54;100733.56;1772862;80;21112;-71
2022/02/14 00:21:44;;;;;;;8.33;6.10;;;;;;;10.54;51.54;100732.92;1752068;81;21526;-70
2022/02/14 00:24:10;;;;;;;7.90;5.90;;;;;;;10.54;51.58;100726.28;1792151;80;21076;-71
2022/02/14 00:26:38;;;;;;;7.42;6.33;;;;;;;10.54;51.56;100726.28;1789888;79;21049;-72
2022/02/14 00:29:05;;;;;;;7.65;5.83;;;;;;;10.55;51.60;100723.98;1760579;81;21054;-71
2022/02/14 00:31:32;;;;;;;7.47;6.55;;;;;;;10.55;51.61;100725.31;1772357;80;22165;-70
2022/02/14 00:33:58;;;;;;;8.28;5.87;;;;;;;10.55;51.58;100718.67;1769582;80;21026;-69
2022/02/14 00:36:25;;;;;;;7.65;6.03;;;;;;;10.55;51.61;100718.17;1764659;81;20985;-70
2022/02/14 00:38:52;;;;;;;8.43;5.87;;;;;;;10.54;51.64;100715.16;1759638;81;21011;-71
2022/02/14 00:41:18;;;;;;;6.10;5.25;;;;;;;10.56;51.63;100713.69;1765651;81;21066;-72
2022/02/14 00:43:46;;;;;;;7.00;5.90;;;;;;;10.57;51.66;100719.36;1763522;81;21153;-73
2022/02/14 00:46:12;;;;;;;6.72;5.62;;;;;;;10.57;51.65;100716.70;1756649;81;21001;-71
2022/02/14 00:48:38;;;;;;;5.83;5.15;;;;;;;10.58;51.68;100710.39;1754844;80;20992;-73
2022/02/14 00:51:05;;;;;;;5.37;4.70;;;;;;;10.58;51.68;100714.38;1743634;79;21521;-71
2022/02/14 00:53:31;;;;;;;6.83;5.25;;;;;;;10.58;51.70;100715.70;1785130;80;21547;-71
2022/02/14 00:55:58;;;;;;;8.95;6.22;;;;;;;10.58;51.74;100717.87;1760933;80;21116;-72
2022/02/14 00:58:24;;;;;;;6.00;5.17;;;;;;;10.58;51.76;100719.70;1759755;80;21034;-72
2022/02/14 01:00:50;;;;;;;7.65;5.28;;;;;;;10.58;51.77;100716.53;1768583;80;21076;-71
2022/02/14 01:03:17;;;;;;;6.65;5.25;;;;;;;10.60;51.78;100719.06;1761310;80;20989;-72
2022/02/14 01:05:44;;;;;;;6.35;5.08;;;;;;;10.59;51.79;100715.57;1770397;80;21038;-70
2022/02/14 01:08:10;;;;;;;7.40;5.60;;;;;;;10.59;51.80;100711.59;1774356;80;21869;-70
2022/02/14 01:10:37;;;;;;;8.05;5.33;;;;;;;10.60;51.81;100711.95;1757808;80;21037;-71
2022/02/14 01:13:03;;;;;;;6.03;5.20;;;;;;;10.60;51.81;100707.09;1758924;80;21464;-70
2022/02/14 01:15:29;;;;;;;7.92;5.58;;;;;;;10.60;51.83;100709.29;1770209;80;21054;-69
2022/02/14 01:17:56;;;;;;;6.17;5.58;;;;;;;10.60;51.82;100699.98;1770758;80;21470;-69
2022/02/14 01:20:22;;;;;;;6.60;5.60;;;;;;;10.60;51.83;100703.11;1778961;80;21143;-71
2022/02/14 01:22:49;;;;;;;7.72;5.42;;;;;;;10.61;51.85;100690.19;1756512;80;21009;-70
2022/02/14 01:25:15;;;;;;;5.33;4.53;;;;;;;10.61;51.86;100695.50;1771677;80;21032;-70
2022/02/14 01:27:41;;;;;;;6.92;5.47;;;;;;;10.60;51.88;100701.31;1778600;80;21016;-70
2022/02/14 01:30:10;;;;;;;7.67;5.58;;;;;;;10.61;51.88;100710.12;1753640;80;21087;-69
2022/02/14 01:32:37;;;;;;;5.90;4.97;;;;;;;10.59;51.88;100699.62;1766855;80;21096;-71
2022/02/14 01:35:05;;;;;;;6.92;5.40;;;;;;;10.60;51.92;100694.67;1776124;80;21040;-71
2022/02/14 01:37:36;;;;;;;6.03;5.42;;;;;;;10.60;51.89;100683.19;1756433;80;21045;-71
2022/02/14 01:40:02;;;;;;;5.87;4.35;;;;;;;10.60;51.92;100681.86;1761555;80;21343;-72
2022/02/14 01:42:29;;;;;;;6.17;5.10;;;;;;;10.61;51.92;100687.53;1766494;80;21325;-70
2022/02/14 01:44:55;;;;;;;5.35;4.72;;;;;;;10.58;51.95;100674.52;1753565;80;21768;-71
2022/02/14 01:47:24;;;;;;;7.37;5.65;;;;;;;10.61;51.96;100676.91;1773736;80;21490;-70
2022/02/14 01:49:51;;;;;;;5.85;4.85;;;;;;;10.61;51.95;100679.56;1763651;79;21088;-71
2022/02/14 01:52:18;;;;;;;4.92;4.42;;;;;;;10.61;51.96;100669.76;1771412;79;21034;-70
2022/02/14 01:54:47;;;;;;;7.30;5.83;;;;;;;10.62;51.96;100667.94;1768330;79;20998;-70
2022/02/14 01:57:14;;;;;;;5.12;4.62;;;;;;;10.62;51.95;100666.60;1769925;79;21171;-70
2022/02/14 01:59:41;;;;;;;5.55;4.65;;;;;;;10.61;51.95;100660.46;1769235;79;21256;-70
2022/02/14 02:05:11;;;;;;;6.05;5.22;;;;;;;10.66;51.97;100669.31;1840214;76;28036;-70
2022/02/14 02:07:38;;;;;;;7.10;4.85;;;;;;;10.62;51.95;100670.13;1803972;79;21008;-70
2022/02/14 02:10:09;;;;;;;6.70;5.15;;;;;;;10.63;51.96;100658.99;1812794;77;22034;-70
2022/02/14 02:12:37;;;;;;;5.28;4.53;;;;;;;10.62;51.96;100655.98;1808829;78;21006;-71
2022/02/14 02:15:05;;;;;;;6.37;5.05;;;;;;;10.62;51.95;100657.30;1812035;77;21280;-71
2022/02/14 02:17:35;;;;;;;6.45;5.20;;;;;;;10.61;51.97;100656.98;1807022;78;21009;-71
2022/02/14 02:20:07;;;;;;;5.33;4.33;;;;;;;10.61;52.01;100656.98;1811173;77;21486;-70
2022/02/14 02:22:34;;;;;;;6.22;5.20;;;;;;;10.61;52.03;100655.64;1808231;78;21155;-70
2022/02/14 02:25:00;;;;;;;5.58;4.22;;;;;;;10.60;52.02;100650.83;1812970;77;20902;-71
2022/02/14 02:27:27;;;;;;;5.85;4.70;;;;;;;10.60;52.03;100652.16;1816545;78;21029;-70
2022/02/14 02:29:57;;;;;;;5.10;4.60;;;;;;;10.59;52.02;100645.16;1808139;77;21026;-71
2022/02/14 02:32:25;;;;;;;4.90;4.37;;;;;;;10.60;52.03;100647.31;1803596;78;21510;-69
2022/02/14 02:34:51;;;;;;;5.97;4.67;;;;;;;10.59;52.03;100645.16;1780433;77;21188;-70
2022/02/14 02:37:17;;;;;;;5.25;4.37;;;;;;;10.59;52.04;100654.95;1803382;77;21034;-71
2022/02/14 02:39:44;;;;;;;6.17;4.70;;;;;;;10.59;52.04;100640.34;1802250;77;21021;-69
2022/02/14 02:42:12;;;;;;;5.58;4.22;;;;;;;10.59;52.04;100638.52;1820092;77;21138;-71
2022/02/14 02:44:40;;;;;;;6.08;4.65;;;;;;;10.59;52.03;100632.38;1808800;78;21073;-72
2022/02/14 02:47:12;;;;;;;5.78;4.12;;;;;;;10.58;52.06;100628.86;1811179;77;21108;-72
2022/02/14 02:49:39;;;;;;;5.23;4.60;;;;;;;10.58;52.05;100626.70;1791791;78;20998;-69
2022/02/14 02:52:07;;;;;;;6.72;4.70;;;;;;;10.59;52.05;100624.41;1808244;77;21065;-69
2022/02/14 02:54:33;;;;;;;5.03;4.53;;;;;;;10.57;52.07;100627.70;1813238;77;21313;-72
2022/02/14 02:57:00;;;;;;;7.03;4.62;;;;;;;10.56;52.08;100628.16;1808617;78;21030;-71
2022/02/14 02:59:28;;;;;;;5.22;4.40;;;;;;;10.57;52.08;100629.02;1805705;77;21119;-69
2022/02/14 03:01:55;;;;;;;5.70;4.67;;;;;;;10.56;52.08;100628.66;1813716;78;21025;-71
2022/02/14 03:04:22;;;;;;;6.55;4.70;;;;;;;10.56;52.08;100627.34;1809199;78;21017;-70
2022/02/14 03:06:48;;;;;;;4.92;4.35;;;;;;;10.56;52.08;100629.99;1801718;77;20994;-71
2022/02/14 03:09:14;;;;;;;5.97;4.72;;;;;;;10.55;52.08;100625.18;1806338;77;20990;-73
2022/02/14 03:11:43;;;;;;;5.83;4.95;;;;;;;10.56;52.09;100628.66;1808584;77;21119;-71
2022/02/14 03:14:10;;;;;;;5.28;4.30;;;;;;;10.55;52.08;100624.35;1813361;79;21025;-71
2022/02/14 03:16:37;;;;;;;5.00;4.40;;;;;;;10.55;52.09;100625.68;1810945;77;21064;-72
2022/02/14 03:19:04;;;;;;;5.80;4.70;;;;;;;10.55;52.08;100629.66;1815219;79;21073;-71
2022/02/14 03:21:30;;;;;;;5.10;4.20;;;;;;;10.54;52.08;100631.47;1808100;77;21045;-70
2022/02/14 03:23:57;;;;;;;5.62;4.15;;;;;;;10.54;52.11;100630.13;1799069;78;22033;-69
2022/02/14 03:26:23;;;;;;;4.95;4.00;;;;;;;10.55;52.11;100631.00;1803361;77;21073;-71
2022/02/14 03:28:53;;;;;;;6.05;5.00;;;;;;;10.52;52.11;100621.97;1819438;78;21010;-70
2022/02/14 03:31:20;;;;;;;6.25;5.12;;;;;;;10.53;52.11;100624.99;1801763;77;21052;-71
2022/02/14 03:33:46;;;;;;;5.37;4.12;;;;;;;10.53;52.11;100627.65;1801389;79;21062;-72
2022/02/14 03:36:14;;;;;;;6.45;4.70;;;;;;;10.52;52.13;100624.13;1809529;77;21470;-71
2022/02/14 03:38:42;;;;;;;5.83;4.20;;;;;;;10.53;52.11;100621.01;1800317;79;21513;-71
2022/02/14 03:41:09;;;;;;;4.95;4.33;;;;;;;10.52;52.11;100612.67;1792187;77;21485;-70
2022/02/14 03:43:36;;;;;;;6.50;4.33;;;;;;;10.51;52.15;100605.20;1800296;77;20981;-71
2022/02/14 03:46:03;;;;;;;5.97;4.60;;;;;;;10.51;52.14;100607.86;1805794;78;20974;-71
2022/02/14 03:48:30;;;;;;;6.35;4.30;;;;;;;10.51;52.14;100610.52;1802940;79;21112;-71
2022/02/14 03:50:57;;;;;;;4.62;3.87;;;;;;;10.51;52.12;100607.03;1801317;78;22120;-70
2022/02/14 03:53:23;;;;;;;5.15;4.53;;;;;;;10.51;52.15;100621.65;1811839;79;21029;-70
2022/02/14 03:55:50;;;;;;;6.03;5.05;;;;;;;10.50;52.15;100604.02;1805211;78;21077;-71
2022/02/14 03:58:17;;;;;;;4.95;4.45;;;;;;;10.50;52.15;100608.00;1816586;78;21025;-72
2022/02/14 04:00:43;;;;;;;4.42;3.87;;;;;;;10.50;52.16;100606.67;1814492;77;21094;-71
2022/02/14 04:03:10;;;;;;;6.08;4.50;;;;;;;10.49;52.16;100607.17;1819305;78;21018;-73
2022/02/14 04:05:36;;;;;;;5.75;5.22;;;;;;;10.49;52.16;100608.97;1826171;76;21001;-72
2022/02/14 04:08:04;;;;;;;5.65;4.65;;;;;;;10.49;52.16;100604.52;1825914;78;21025;-71
2022/02/14 04:10:31;;;;;;;5.67;4.60;;;;;;;10.49;52.16;100610.30;1811149;76;21024;-72
2022/02/14 04:12:57;;;;;;;5.83;4.60;;;;;;;10.49;52.17;100610.30;1825514;78;21026;-71
2022/02/14 04:15:24;;;;;;;6.08;4.12;;;;;;;10.49;52.17;100611.62;1838142;76;21067;-72
2022/02/14 04:17:50;;;;;;;5.28;4.40;;;;;;;10.48;52.17;100605.98;1835370;76;21060;-72
2022/02/14 04:20:17;;;;;;;6.85;4.62;;;;;;;10.48;52.19;100605.98;1830238;76;22057;-71
2022/02/14 04:22:45;;;;;;;5.00;3.90;;;;;;;10.47;52.18;100607.81;1818706;76;21536;-71
2022/02/14 04:25:14;;;;;;;5.83;4.17;;;;;;;10.46;52.18;100607.45;1828864;76;21136;-71
2022/02/14 04:27:41;;;;;;;4.65;4.10;;;;;;;10.46;52.20;100603.47;1834015;77;21044;-71
2022/02/14 04:30:10;;;;;;;4.95;4.00;;;;;;;10.46;52.19;100607.95;1831379;76;21149;-71
2022/02/14 04:32:38;;;;;;;5.53;4.47;;;;;;;10.46;52.20;100610.11;1823981;76;21012;-72
2022/02/14 04:35:05;;;;;;;5.47;4.30;;;;;;;10.46;52.22;100603.97;1833583;76;21028;-72
2022/02/14 04:37:32;;;;;;;5.45;4.28;;;;;;;10.43;52.23;100599.30;1807885;76;21129;-72
2022/02/14 04:39:59;;;;;;;4.83;3.87;;;;;;;10.44;52.21;100601.45;1820320;76;21028;-71
2022/02/14 04:42:26;;;;;;;4.65;4.25;;;;;;;10.44;52.21;100602.78;1838274;76;21643;-72
2022/02/14 04:44:53;;;;;;;4.25;3.85;;;;;;;10.42;52.22;100601.59;1832030;78;21024;-73
2022/02/14 04:47:19;;;;;;;6.20;4.55;;;;;;;10.42;52.23;100613.55;1836845;77;21080;-71
2022/02/14 04:49:46;;;;;;;5.15;4.45;;;;;;;10.41;52.24;100614.55;1830663;77;21378;-71
2022/02/14 04:52:12;;;;;;;4.90;4.03;;;;;;;10.42;52.24;100620.19;1838013;76;21504;-71
2022/02/14 04:54:39;;;;;;;4.40;3.87;;;;;;;10.42;52.24;100624.67;1819863;78;21134;-71
2022/02/14 04:57:05;;;;;;;7.72;4.72;;;;;;;10.41;52.24;100622.52;1830747;78;21083;-72
2022/02/14 04:59:32;;;;;;;5.47;3.95;;;;;;;10.41;52.24;100621.19;1830635;76;21514;-72
2022/02/14 05:01:59;;;;;;;6.25;4.28;;;;;;;10.41;52.25;100624.31;1839077;77;21470;-72
2022/02/14 05:04:26;;;;;;;5.50;4.35;;;;;;;10.40;52.25;100619.50;1820530;77;21087;-73
2022/02/14 05:06:53;;;;;;;4.75;3.83;;;;;;;10.40;52.26;100620.00;1776330;79;21029;-72
2022/02/14 05:09:19;;;;;;;5.25;4.08;;;;;;;10.40;52.25;100624.81;1771631;79;21092;-72
2022/02/14 05:11:46;;;;;;;5.70;4.45;;;;;;;10.39;52.24;100626.27;1768214;79;21063;-71
2022/02/14 05:14:12;;;;;;;4.80;4.08;;;;;;;10.38;52.26;100621.46;1768072;81;22250;-73
2022/02/14 05:16:39;;;;;;;5.40;4.47;;;;;;;10.38;52.24;100633.41;1760807;79;21489;-73
2022/02/14 05:19:06;;;;;;;4.45;3.90;;;;;;;10.38;52.26;100624.12;1752519;79;21029;-71
2022/02/14 05:21:33;;;;;;;4.70;4.03;;;;;;;10.38;52.25;100632.59;1768364;79;21057;-70
2022/02/14 05:23:59;;;;;;;5.03;4.37;;;;;;;10.37;52.26;100642.38;1771660;81;21002;-70
2022/02/14 05:26:26;;;;;;;5.28;4.25;;;;;;;10.37;52.26;100642.85;1779555;79;21818;-73
2022/02/14 05:28:55;;;;;;;4.87;4.17;;;;;;;10.36;52.26;100636.70;1769746;80;21064;-71
2022/02/14 05:31:24;;;;;;;5.28;4.45;;;;;;;10.37;52.26;100643.71;1753714;79;21494;-72
2022/02/14 05:33:50;;;;;;;5.40;4.03;;;;;;;10.37;52.27;100649.49;1770454;80;21037;-72
2022/02/14 05:36:18;;;;;;;7.17;5.25;;;;;;;10.36;52.27;100646.00;1767650;79;21053;-71
2022/02/14 05:38:45;;;;;;;5.58;4.70;;;;;;;10.36;52.29;100652.64;1770214;81;21136;-70
2022/02/14 05:41:11;;;;;;;5.70;4.65;;;;;;;10.36;52.28;100657.95;1779559;79;21612;-71
2022/02/14 05:43:38;;;;;;;5.60;4.17;;;;;;;10.36;52.27;100662.44;1794782;79;21072;-71
2022/02/14 05:46:04;;;;;;;4.60;4.00;;;;;;;10.36;52.26;100667.75;1777837;79;21037;-72
2022/02/14 05:48:30;;;;;;;5.17;4.05;;;;;;;10.36;52.29;100671.23;1761646;81;21251;-69
2022/02/14 05:50:57;;;;;;;5.45;4.05;;;;;;;10.36;52.29;100669.08;1770331;81;21075;-69
2022/02/14 05:53:24;;;;;;;5.97;4.55;;;;;;;10.36;52.29;100665.09;1766819;81;21048;-72
2022/02/14 05:55:50;;;;;;;5.22;4.33;;;;;;;10.36;52.28;100665.92;1774570;79;21025;-72
2022/02/14 05:58:16;;;;;;;5.85;4.55;;;;;;;10.37;52.28;100672.07;1738816;82;21052;-71
2022/02/14 06:00:43;;;;;;;5.92;4.85;;;;;;;10.36;52.28;100675.22;1764041;79;21076;-72
2022/02/14 06:03:09;;;;;;;6.30;4.65;;;;;;;10.38;52.29;100672.43;1766155;81;21796;-71
2022/02/14 06:05:36;;;;;;;5.22;4.45;;;;;;;10.37;52.29;100678.24;1791135;77;21545;-72
2022/02/14 06:08:02;;;;;;;5.72;4.53;;;;;;;10.38;52.28;100681.23;1810093;79;21474;-72
2022/02/14 06:10:29;;;;;;;5.30;4.80;;;;;;;10.39;52.28;100679.40;1794843;77;21053;-71
2022/02/14 06:12:56;;;;;;;5.28;4.30;;;;;;;10.38;52.27;100671.94;1791091;77;21073;-70
2022/02/14 06:15:22;;;;;;;5.60;4.78;;;;;;;10.40;52.26;100677.11;1795628;77;21056;-69
2022/02/14 06:17:49;;;;;;;4.97;4.33;;;;;;;10.40;52.26;100669.97;1790734;77;21048;-75
2022/02/14 06:20:16;;;;;;;5.60;4.12;;;;;;;10.41;52.25;100672.13;1806733;77;21044;-73
2022/02/14 06:22:43;;;;;;;5.92;4.87;;;;;;;10.42;52.24;100672.48;1799732;77;21529;-71
2022/02/14 06:25:09;;;;;;;5.37;4.25;;;;;;;10.43;52.24;100674.17;1816736;77;21072;-71
2022/02/14 06:27:36;;;;;;;5.30;4.60;;;;;;;10.45;52.23;100681.98;1799187;79;21090;-74
2022/02/14 06:30:04;;;;;;;6.03;4.47;;;;;;;10.45;52.21;100679.31;1797387;77;21001;-73
2022/02/14 06:32:32;;;;;;;6.10;4.55;;;;;;;10.46;52.20;100676.52;1807281;79;20999;-75
2022/02/14 06:35:02;;;;;;;6.33;5.17;;;;;;;10.47;52.20;100674.70;1792864;77;21132;-74
2022/02/14 06:37:28;;;;;;;6.92;5.28;;;;;;;10.47;52.19;100668.05;1809781;79;21006;-74
2022/02/14 06:39:56;;;;;;;7.08;5.45;;;;;;;10.48;52.17;100674.56;1800925;77;21664;-72
2022/02/14 06:42:24;;;;;;;5.40;4.67;;;;;;;10.49;52.17;100682.89;1802929;77;21101;-72
2022/02/14 06:44:53;;;;;;;5.58;4.97;;;;;;;10.50;52.16;100677.91;1810155;79;20994;-73
2022/02/14 06:47:20;;;;;;;6.60;5.40;;;;;;;10.51;52.15;100672.13;1800458;77;21612;-70
2022/02/14 06:49:46;;;;;;;5.92;5.33;;;;;;;10.52;52.15;100678.59;1787049;78;21059;-73
2022/02/14 06:52:13;;;;;;;5.00;4.37;;;;;;;10.53;52.14;100671.48;1800553;77;22138;-72
2022/02/14 06:54:39;;;;;;;6.58;5.25;;;;;;;10.54;52.12;100675.80;1794051;79;21030;-73
2022/02/14 06:57:05;;;;;;;6.67;4.90;;;;;;;10.56;52.12;100665.86;1786419;78;21112;-72
2022/02/14 06:59:32;;;;;;;7.45;5.03;;;;;;;10.57;52.11;100686.16;1791613;77;21025;-73
2022/02/14 07:01:59;;;;;;;5.45;4.90;;;;;;;10.58;52.11;100668.71;1795787;77;21027;-74
2022/02/14 07:04:26;;;;;;;6.75;5.40;;;;;;;10.60;52.07;100669.44;1785412;77;22114;-72
2022/02/14 07:06:54;;;;;;;5.75;5.10;;;;;;;10.61;52.08;100671.09;1792368;77;21038;-73
2022/02/14 07:09:20;;;;;;;6.95;5.58;;;;;;;10.63;52.05;100663.81;1791946;77;21069;-73
2022/02/14 07:11:46;;;;;;;5.30;4.80;;;;;;;10.65;52.03;100651.71;1792661;77;21007;-72
2022/02/14 07:14:13;;;;;;;5.70;4.87;;;;;;;10.66;52.00;100653.37;1781588;79;21002;-72
2022/02/14 07:16:43;;;;;;;6.30;5.08;;;;;;;10.68;51.99;100647.91;1805339;77;21086;-71
2022/02/14 07:19:11;;;;;;;5.83;4.60;;;;;;;10.69;52.00;100651.76;1803129;77;21075;-72
2022/02/14 07:21:37;;;;;;;5.90;5.30;;;;;;;10.71;51.97;100656.44;1806535;77;21061;-72
2022/02/14 07:24:05;;;;;;;5.40;4.90;;;;;;;10.73;51.96;100650.48;1803177;78;21127;-72
2022/02/14 07:26:32;;;;;;;6.15;4.80;;;;;;;10.74;51.97;100653.50;1806577;77;21037;-69
2022/02/14 07:28:59;;;;;;;5.53;4.85;;;;;;;10.76;51.98;100665.31;1806973;77;21158;-69
2022/02/14 07:31:25;;;;;;;6.03;5.40;;;;;;;10.78;51.96;100650.88;1807165;77;21041;-70
2022/02/14 07:33:51;;;;;;;6.60;4.72;;;;;;;10.79;51.94;100647.23;1804439;78;21033;-71
2022/02/14 07:36:19;;;;;;;6.50;5.22;;;;;;;10.82;51.91;100654.92;1800729;79;21540;-72
2022/02/14 07:38:45;;;;;;;4.85;4.35;;;;;;;10.84;51.91;100653.45;1793339;79;21049;-71
2022/02/14 07:41:11;;;;;;;6.65;4.92;;;;;;;10.86;51.88;100663.94;1788870;78;22354;-70
2022/02/14 07:43:38;;;;;;;6.00;4.67;;;;;;;10.87;51.87;100672.24;1787593;77;21085;-70
2022/02/14 07:46:06;;;;;;;6.65;5.33;;;;;;;10.89;51.87;100668.44;1801166;77;21033;-72
2022/02/14 07:48:34;;;;;;;5.92;4.72;;;;;;;10.92;51.85;100669.98;1794205;77;21092;-71
2022/02/14 07:51:00;;;;;;;5.50;4.25;;;;;;;10.93;51.84;100657.02;1792266;77;21502;-73
2022/02/14 07:53:26;;;;;;;6.40;5.10;;;;;;;10.95;51.81;100656.38;1794798;77;21088;-69
2022/02/14 07:55:54;;;;;;;9.53;5.15;;;;;;;10.97;51.80;100650.42;1792739;77;21459;-65
2022/02/14 07:58:20;;;;;;;13.35;5.25;;;;;;;11.02;60.24;100585.19;1795098;77;21025;-62
2022/02/14 08:00:47;;;;;;;10.23;5.35;;;;;;;11.25;63.34;100587.91;1787415;77;21017;-76
2022/02/14 08:03:14;;;;;;;10.03;5.10;;;;;;;11.46;68.59;100573.80;1760396;79;21072;-72
2022/02/14 08:05:41;;;;;;;9.00;4.72;;;;;;;11.82;71.63;100580.41;1788965;77;21058;-69
2022/02/14 08:08:07;;;;;;;8.70;4.33;;;;;;;12.31;71.78;100588.72;1792772;79;22127;-73
2022/02/14 08:10:35;;;;;;;13.72;5.10;;;;;;;12.80;71.67;100585.41;1799048;77;21037;-64
2022/02/14 08:13:02;;;;;;;8.88;5.40;;;;;;;13.21;71.14;100574.82;1783490;77;21053;-69
2022/02/14 08:15:29;;;;;;;11.55;5.22;;;;;;;13.60;70.29;100575.56;1808229;77;21018;-70
2022/02/14 08:17:59;;;;;;;13.22;5.40;;;;;;;13.95;69.64;100594.38;1796610;77;21119;-64
2022/02/14 08:20:24;;;;;;;10.53;5.45;;;;;;;14.29;68.94;100650.78;1803414;77;21042;-64
2022/02/14 08:22:51;;;;;;;9.95;5.58;;;;;;;14.60;68.21;100667.42;1800639;77;20962;-62
2022/02/14 08:25:18;;;;;;;12.30;4.75;;;;;;;14.88;67.12;100658.98;1800538;77;21059;-66
2022/02/14 08:27:44;;;;;;;12.20;5.40;;;;;;;15.12;65.90;100645.48;1793295;77;21621;-65
2022/02/14 08:30:12;;;;;;;8.60;5.78;;;;;;;15.33;64.42;100591.30;1785902;77;21112;-63
2022/02/14 08:32:39;;;;;;;17.42;7.90;;;;;;;15.52;62.80;100597.19;1799079;77;21116;-63
2022/02/14 08:35:07;;;;;;;9.15;5.92;;;;;;;15.69;61.85;100593.88;1804861;77;21049;-64
2022/02/14 08:37:35;;;;;;;7.95;5.62;;;;;;;15.86;61.14;100602.64;1801994;77;21053;-74
2022/02/14 08:40:02;;;;;;;8.03;5.45;;;;;;;16.01;60.23;100685.73;1793741;78;21079;-76
2022/02/14 08:42:29;;;;;;;10.55;6.00;;;;;;;16.05;59.17;100672.28;1809248;79;21125;-76
2022/02/14 08:44:56;;;;;;;8.48;5.53;;;;;;;16.00;58.35;100684.91;1795287;79;21200;-69
2022/02/14 08:47:22;;;;;;;8.65;6.12;;;;;;;15.93;57.71;100679.92;1796238;77;21015;-71
2022/02/14 08:49:50;;;;;;;10.53;5.60;;;;;;;15.84;57.21;100678.32;1801919;77;21025;-73
2022/02/14 08:52:16;;;;;;;7.45;5.42;;;;;;;15.73;56.79;100677.74;1796643;77;21133;-71
2022/02/14 08:54:42;;;;;;;7.78;5.50;;;;;;;15.64;56.49;100686.81;1785415;79;21144;-71
2022/02/14 08:57:08;;;;;;;7.33;5.10;;;;;;;15.56;56.25;100688.21;1793649;77;21090;-70
2022/02/14 08:59:35;;;;;;;7.45;5.20;;;;;;;15.47;56.06;100686.59;1800097;77;21064;-68
2022/02/14 09:02:02;;;;;;;6.08;4.80;;;;;;;15.41;55.88;100684.63;1805208;77;20993;-69
2022/02/14 09:04:28;;;;;;;7.00;4.78;;;;;;;15.32;55.71;100685.20;1794481;79;21036;-71
2022/02/14 09:06:54;;;;;;;7.47;5.45;;;;;;;15.30;55.57;100684.03;1802710;77;21078;-72
2022/02/14 09:09:22;;;;;;;6.37;4.97;;;;;;;15.27;55.39;100679.52;1794095;77;21046;-71
2022/02/14 09:11:49;;;;;;;7.55;5.10;;;;;;;15.23;55.23;100683.56;1792569;77;21570;-72
2022/02/14 09:14:15;;;;;;;6.78;5.03;;;;;;;15.22;55.06;100685.90;1805922;77;21029;-72
2022/02/14 09:16:42;;;;;;;6.83;4.95;;;;;;;15.20;54.89;100690.59;1802479;78;21018;-68
2022/02/14 09:19:10;;;;;;;7.85;5.62;;;;;;;15.21;54.74;100676.22;1786187;77;21114;-70
2022/02/14 09:21:38;;;;;;;9.45;5.15;;;;;;;15.21;54.54;100670.86;1807635;79;21049;-72
2022/02/14 09:24:05;;;;;;;6.10;5.03;;;;;;;15.22;54.38;100680.06;1811492;77;21059;-71
2022/02/14 09:26:31;;;;;;;5.83;4.37;;;;;;;15.22;54.22;100661.81;1805257;77;21695;-71
2022/02/14 09:28:58;;;;;;;6.83;5.22;;;;;;;15.24;54.05;100664.66;1790324;77;21546;-70
2022/02/14 09:31:24;;;;;;;8.95;5.20;;;;;;;15.25;53.91;100667.65;1814543;77;21080;-70
2022/02/14 09:33:50;;;;;;;8.60;5.15;;;;;;;15.27;53.71;100664.29;1785658;79;20989;-74
2022/02/14 09:36:17;;;;;;;6.35;4.85;;;;;;;15.31;53.58;100679.50;1787287;77;21188;-71
2022/02/14 09:38:48;;;;;;;6.60;5.10;;;;;;;15.33;53.40;100672.13;1790793;77;21085;-73
2022/02/14 09:41:13;;;;;;;7.47;5.35;;;;;;;15.38;53.25;100665.74;1757882;79;21055;-72
2022/02/14 09:43:39;;;;;;;5.85;4.30;;;;;;;15.41;53.06;100656.00;1750052;80;21148;-71
2022/02/14 09:46:05;;;;;;;5.08;4.58;;;;;;;15.46;52.90;100665.69;1747175;79;21060;-73
2022/02/14 09:48:33;;;;;;;7.30;5.05;;;;;;;15.51;52.75;100675.37;1748284;79;21059;-71
2022/02/14 09:50:59;;;;;;;6.42;4.25;;;;;;;15.56;52.60;100648.05;1804272;79;21029;-71
2022/02/14 09:53:25;;;;;;;8.73;4.70;;;;;;;15.62;52.46;100648.66;1809059;77;21049;-73
2022/02/14 09:55:52;;;;;;;6.47;4.92;;;;;;;15.68;52.34;100647.97;1789578;77;21100;-71
2022/02/14 09:58:18;;;;;;;5.60;4.80;;;;;;;15.73;52.22;100650.13;1806027;77;21537;-73
2022/02/14 10:00:44;;;;;;;5.45;4.83;;;;;;;15.78;52.12;100645.08;1765507;79;21026;-72
2022/02/14 10:03:16;;;;;;;5.58;4.75;;;;;;;15.83;52.01;100646.69;1748904;79;21009;-71
2022/02/14 10:05:52;;;;;;;6.10;5.05;;;;;;;15.88;51.92;100637.61;1744231;79;21215;-71
2022/02/14 10:08:25;;;;;;;6.03;4.33;;;;;;;15.94;51.84;100632.03;1761808;80;21057;-71
2022/02/14 10:10:57;;;;;;;5.00;4.15;;;;;;;16.01;51.73;100634.80;1762701;79;21025;-70
2022/02/14 10:13:33;;;;;;;6.28;4.62;;;;;;;16.06;51.65;100631.91;1786008;77;21061;-70
2022/02/14 10:16:03;;;;;;;5.50;4.28;;;;;;;16.13;51.53;100613.27;1801893;77;21010;-71
2022/02/14 10:18:32;;;;;;;4.90;4.40;;;;;;;16.21;51.45;100623.08;1802793;77;21004;-70
2022/02/14 10:21:23;;;;;;;6.35;4.20;;;;;;;16.29;51.35;100621.64;1778321;79;21097;-71
2022/02/14 10:24:10;;;;;;;5.08;4.10;;;;;;;16.38;51.27;100617.00;1747073;81;21028;-69
2022/02/14 10:26:45;;;;;;;5.67;4.12;;;;;;;16.46;51.12;100607.03;1761352;79;21137;-71
2022/02/14 10:29:25;;;;;;;5.17;3.90;;;;;;;16.55;51.04;100605.59;1755204;79;21092;-69
2022/02/14 10:32:08;;;;;;;3.95;3.55;;;;;;;16.62;50.97;100614.05;1775835;79;21574;-71
2022/02/14 10:34:41;;;;;;;6.05;3.77;;;;;;;16.68;50.88;100603.90;1741724;79;21862;-72
2022/02/14 10:37:10;;;;;;;5.58;4.22;;;;;;;16.77;50.78;100611.88;1764459;79;21595;-70
2022/02/14 10:39:37;;;;;;;5.60;4.08;;;;;;;16.85;50.73;100599.71;1757196;81;21057;-71
2022/02/14 10:42:09;;;;;;;4.50;3.50;;;;;;;16.84;50.63;100600.72;1796440;77;21044;-71
2022/02/14 10:47:40;;;;;;;5.03;4.12;;;;;;;17.06;50.45;100613.17;1797037;77;21569;-72
2022/02/14 10:50:19;;;;;;;5.12;4.15;;;;;;;17.16;50.34;100618.75;1795748;77;21586;-71
2022/02/14 10:52:49;;;;;;;5.12;4.10;;;;;;;17.24;50.28;100603.86;1802591;79;21077;-73
2022/02/14 10:55:26;;;;;;;4.35;3.50;;;;;;;17.32;50.21;100601.04;1807787;79;21065;-69
2022/02/14 10:57:53;;;;;;;5.37;3.35;;;;;;;17.40;50.14;100604.11;1804374;79;21039;-70
2022/02/14 11:00:24;;;;;;;4.05;3.42;;;;;;;17.47;50.05;100603.15;1793297;77;21116;-70
2022/02/14 11:02:56;;;;;;;4.03;3.35;;;;;;;17.56;49.97;100606.55;1792239;77;21069;-72
2022/02/14 11:05:22;;;;;;;4.78;3.67;;;;;;;17.66;49.88;100599.50;1796452;77;21107;-70
2022/02/14 11:07:48;;;;;;;4.72;3.70;;;;;;;17.74;49.79;100586.45;1794697;77;21038;-70
2022/02/14 11:10:17;;;;;;;3.70;3.40;;;;;;;17.83;49.68;100603.58;1787173;77;21085;-69
2022/02/14 11:12:54;;;;;;;4.22;3.70;;;;;;;17.91;49.58;100603.98;1797156;77;21265;-70
2022/02/14 11:15:30;;;;;;;5.70;3.22;;;;;;;17.99;49.51;100597.10;1807053;77;21643;-71
2022/02/14 11:18:16;;;;;;;3.72;3.05;;;;;;;18.08;49.39;100588.39;1806014;77;21363;-70
2022/02/14 11:20:43;;;;;;;4.12;3.60;;;;;;;18.19;49.30;100581.61;1819037;77;21053;-69
2022/02/14 11:23:11;;;;;;;4.92;3.50;;;;;;;18.27;49.21;100590.37;1800272;77;21136;-71
2022/02/14 11:26:02;;;;;;;3.50;3.20;;;;;;;18.37;49.10;100595.88;1796323;79;21134;-71
2022/02/14 11:28:57;;;;;;;3.77;3.08;;;;;;;18.45;48.98;100580.94;1810527;77;21045;-71
2022/02/14 11:31:30;;;;;;;4.33;3.37;;;;;;;18.56;48.87;100584.91;1782301;77;21048;-71
2022/02/14 11:34:08;;;;;;;3.27;2.62;;;;;;;18.65;48.75;100578.33;1808458;79;21018;-72